sensor_id;sensor_type;location;lat;lon;timestamp;P1;durP1;ratioP1;P2;durP2;ratioP2
28766;SDS011;15921;52.034;20.650;2023-12-20T00:01:04;29.33;;;15.35;;
28766;SDS011;15921;52.034;20.650;2023-12-20T00:03:30;29.38;;;15.23;;
28766;SDS011;15921;52.034;20.650;2023-12-20T00:05:56;32.17;;;16.27;;
28766;SDS011;15921;52.034;20.650;2023-12-20T00:08:21;28.80;;;15.30;;
28766;SDS011;15921;52.034;20.650;2023-12-20T00:10:47;28.02;;;15.07;;
28766;SDS011;15921;52.034;20.650;2023-12-20T00:13:13;28.35;;;14.93;;
28766;SDS011;15921;52.034;20.650;2023-12-20T00:15:38;25.95;;;14.25;;
28766;SDS011;15921;52.034;20.650;2023-12-20T00:18:04;26.67;;;15.07;;
28766;SDS011;15921;52.034;20.650;2023-12-20T00:20:30;32.53;;;15.70;;
28766;SDS011;15921;52.034;20.650;2023-12-20T00:22:56;28.83;;;15.52;;
28766;SDS011;15921;52.034;20.650;2023-12-20T00:25:25;29.42;;;15.25;;
28766;SDS011;15921;52.034;20.650;2023-12-20T00:27:51;26.42;;;14.30;;
28766;SDS011;15921;52.034;20.650;2023-12-20T00:30:17;28.17;;;14.55;;
28766;SDS011;15921;52.034;20.650;2023-12-20T00:32:43;28.70;;;14.63;;
28766;SDS011;15921;52.034;20.650;2023-12-20T00:35:14;27.15;;;15.32;;
28766;SDS011;15921;52.034;20.650;2023-12-20T00:37:40;30.48;;;14.63;;
28766;SDS011;15921;52.034;20.650;2023-12-20T00:40:07;31.73;;;14.98;;
28766;SDS011;15921;52.034;20.650;2023-12-20T00:42:33;28.45;;;14.65;;
28766;SDS011;15921;52.034;20.650;2023-12-20T00:44:59;30.00;;;15.00;;
28766;SDS011;15921;52.034;20.650;2023-12-20T00:47:25;26.80;;;14.30;;
28766;SDS011;15921;52.034;20.650;2023-12-20T00:49:51;26.23;;;15.07;;
28766;SDS011;15921;52.034;20.650;2023-12-20T00:52:17;28.35;;;14.43;;
28766;SDS011;15921;52.034;20.650;2023-12-20T00:54:43;27.45;;;14.98;;
28766;SDS011;15921;52.034;20.650;2023-12-20T00:57:09;27.52;;;14.88;;
28766;SDS011;15921;52.034;20.650;2023-12-20T00:59:35;29.45;;;14.82;;
28766;SDS011;15921;52.034;20.650;2023-12-20T01:02:01;26.77;;;14.73;;
28766;SDS011;15921;52.034;20.650;2023-12-20T01:04:27;26.75;;;14.80;;
28766;SDS011;15921;52.034;20.650;2023-12-20T01:06:52;26.25;;;14.00;;
28766;SDS011;15921;52.034;20.650;2023-12-20T01:09:18;29.88;;;14.68;;
28766;SDS011;15921;52.034;20.650;2023-12-20T01:11:44;27.33;;;14.65;;
28766;SDS011;15921;52.034;20.650;2023-12-20T01:14:13;26.10;;;14.32;;
28766;SDS011;15921;52.034;20.650;2023-12-20T01:16:39;28.83;;;15.77;;
28766;SDS011;15921;52.034;20.650;2023-12-20T01:19:05;26.30;;;13.75;;
28766;SDS011;15921;52.034;20.650;2023-12-20T01:21:31;29.08;;;15.20;;
28766;SDS011;15921;52.034;20.650;2023-12-20T01:23:57;28.88;;;14.32;;
28766;SDS011;15921;52.034;20.650;2023-12-20T01:26:23;26.88;;;13.90;;
28766;SDS011;15921;52.034;20.650;2023-12-20T01:28:49;23.92;;;13.73;;
28766;SDS011;15921;52.034;20.650;2023-12-20T01:31:14;25.08;;;14.25;;
28766;SDS011;15921;52.034;20.650;2023-12-20T01:33:40;23.27;;;12.57;;
28766;SDS011;15921;52.034;20.650;2023-12-20T01:36:06;24.65;;;12.70;;
28766;SDS011;15921;52.034;20.650;2023-12-20T01:38:31;24.02;;;12.00;;
28766;SDS011;15921;52.034;20.650;2023-12-20T01:40:57;21.90;;;13.00;;
28766;SDS011;15921;52.034;20.650;2023-12-20T01:43:23;24.27;;;12.57;;
28766;SDS011;15921;52.034;20.650;2023-12-20T01:45:49;22.90;;;11.82;;
28766;SDS011;15921;52.034;20.650;2023-12-20T01:48:14;26.23;;;12.57;;
28766;SDS011;15921;52.034;20.650;2023-12-20T01:50:41;25.33;;;12.18;;
28766;SDS011;15921;52.034;20.650;2023-12-20T01:53:09;24.40;;;12.90;;
28766;SDS011;15921;52.034;20.650;2023-12-20T01:55:38;22.70;;;12.85;;
28766;SDS011;15921;52.034;20.650;2023-12-20T01:58:05;22.77;;;11.30;;
28766;SDS011;15921;52.034;20.650;2023-12-20T02:00:33;22.92;;;12.52;;
28766;SDS011;15921;52.034;20.650;2023-12-20T02:03:03;25.45;;;12.50;;
28766;SDS011;15921;52.034;20.650;2023-12-20T02:05:30;22.55;;;12.43;;
28766;SDS011;15921;52.034;20.650;2023-12-20T02:07:57;26.35;;;13.30;;
28766;SDS011;15921;52.034;20.650;2023-12-20T02:10:23;23.67;;;13.60;;
28766;SDS011;15921;52.034;20.650;2023-12-20T02:12:50;26.25;;;13.45;;
28766;SDS011;15921;52.034;20.650;2023-12-20T02:15:15;30.77;;;14.18;;
28766;SDS011;15921;52.034;20.650;2023-12-20T02:17:41;28.13;;;13.45;;
28766;SDS011;15921;52.034;20.650;2023-12-20T02:20:08;25.75;;;13.57;;
28766;SDS011;15921;52.034;20.650;2023-12-20T02:22:33;25.13;;;13.63;;
28766;SDS011;15921;52.034;20.650;2023-12-20T02:24:59;27.08;;;14.85;;
28766;SDS011;15921;52.034;20.650;2023-12-20T02:27:25;31.67;;;14.60;;
28766;SDS011;15921;52.034;20.650;2023-12-20T02:29:50;25.70;;;14.48;;
28766;SDS011;15921;52.034;20.650;2023-12-20T02:32:17;28.05;;;14.55;;
28766;SDS011;15921;52.034;20.650;2023-12-20T02:34:43;23.42;;;12.20;;
28766;SDS011;15921;52.034;20.650;2023-12-20T02:37:09;20.30;;;11.77;;
28766;SDS011;15921;52.034;20.650;2023-12-20T02:39:34;19.70;;;10.18;;
28766;SDS011;15921;52.034;20.650;2023-12-20T02:42:00;19.70;;;10.43;;
28766;SDS011;15921;52.034;20.650;2023-12-20T02:44:26;19.90;;;10.55;;
28766;SDS011;15921;52.034;20.650;2023-12-20T02:46:52;19.80;;;10.75;;
28766;SDS011;15921;52.034;20.650;2023-12-20T02:49:17;18.60;;;10.55;;
28766;SDS011;15921;52.034;20.650;2023-12-20T02:51:43;17.35;;;9.60;;
28766;SDS011;15921;52.034;20.650;2023-12-20T02:54:09;16.60;;;9.40;;
28766;SDS011;15921;52.034;20.650;2023-12-20T02:56:34;19.42;;;9.75;;
28766;SDS011;15921;52.034;20.650;2023-12-20T02:59:00;17.05;;;8.98;;
28766;SDS011;15921;52.034;20.650;2023-12-20T03:01:27;18.38;;;9.93;;
28766;SDS011;15921;52.034;20.650;2023-12-20T03:03:52;16.15;;;9.38;;
28766;SDS011;15921;52.034;20.650;2023-12-20T03:06:18;15.48;;;8.98;;
28766;SDS011;15921;52.034;20.650;2023-12-20T03:08:44;14.75;;;8.50;;
28766;SDS011;15921;52.034;20.650;2023-12-20T03:11:10;16.90;;;9.68;;
28766;SDS011;15921;52.034;20.650;2023-12-20T03:13:36;16.70;;;8.85;;
28766;SDS011;15921;52.034;20.650;2023-12-20T03:16:12;17.92;;;9.75;;
28766;SDS011;15921;52.034;20.650;2023-12-20T03:18:38;20.33;;;9.77;;
28766;SDS011;15921;52.034;20.650;2023-12-20T03:21:04;19.35;;;10.80;;
28766;SDS011;15921;52.034;20.650;2023-12-20T03:23:30;21.05;;;10.45;;
28766;SDS011;15921;52.034;20.650;2023-12-20T03:25:57;22.05;;;10.63;;
28766;SDS011;15921;52.034;20.650;2023-12-20T03:28:23;19.80;;;11.07;;
28766;SDS011;15921;52.034;20.650;2023-12-20T03:30:50;23.40;;;11.10;;
28766;SDS011;15921;52.034;20.650;2023-12-20T03:33:15;22.90;;;12.13;;
28766;SDS011;15921;52.034;20.650;2023-12-20T03:35:41;21.38;;;11.68;;
28766;SDS011;15921;52.034;20.650;2023-12-20T03:38:07;21.90;;;12.02;;
28766;SDS011;15921;52.034;20.650;2023-12-20T03:40:33;25.88;;;11.95;;
28766;SDS011;15921;52.034;20.650;2023-12-20T03:42:58;22.55;;;12.52;;
28766;SDS011;15921;52.034;20.650;2023-12-20T03:45:24;18.67;;;11.00;;
28766;SDS011;15921;52.034;20.650;2023-12-20T03:47:50;22.67;;;11.50;;
28766;SDS011;15921;52.034;20.650;2023-12-20T03:50:20;19.70;;;11.38;;
28766;SDS011;15921;52.034;20.650;2023-12-20T03:52:49;21.05;;;10.90;;
28766;SDS011;15921;52.034;20.650;2023-12-20T03:55:15;18.23;;;10.57;;
28766;SDS011;15921;52.034;20.650;2023-12-20T03:57:40;20.50;;;10.48;;
28766;SDS011;15921;52.034;20.650;2023-12-20T04:00:09;19.65;;;10.52;;
28766;SDS011;15921;52.034;20.650;2023-12-20T04:02:39;21.38;;;10.88;;
28766;SDS011;15921;52.034;20.650;2023-12-20T04:05:05;20.38;;;11.20;;
28766;SDS011;15921;52.034;20.650;2023-12-20T04:07:32;19.65;;;10.00;;
28766;SDS011;15921;52.034;20.650;2023-12-20T04:09:57;19.75;;;10.27;;
28766;SDS011;15921;52.034;20.650;2023-12-20T04:12:23;18.88;;;10.60;;
28766;SDS011;15921;52.034;20.650;2023-12-20T04:14:49;18.05;;;9.32;;
28766;SDS011;15921;52.034;20.650;2023-12-20T04:17:15;20.63;;;9.55;;
28766;SDS011;15921;52.034;20.650;2023-12-20T04:19:42;18.77;;;9.23;;
28766;SDS011;15921;52.034;20.650;2023-12-20T04:22:08;16.20;;;9.05;;
28766;SDS011;15921;52.034;20.650;2023-12-20T04:24:34;17.00;;;9.27;;
28766;SDS011;15921;52.034;20.650;2023-12-20T04:26:59;17.80;;;8.52;;
28766;SDS011;15921;52.034;20.650;2023-12-20T04:29:25;15.95;;;8.38;;
28766;SDS011;15921;52.034;20.650;2023-12-20T04:31:51;17.83;;;8.13;;
28766;SDS011;15921;52.034;20.650;2023-12-20T04:34:17;14.27;;;7.53;;
28766;SDS011;15921;52.034;20.650;2023-12-20T04:36:43;14.15;;;7.93;;
28766;SDS011;15921;52.034;20.650;2023-12-20T04:39:09;15.07;;;7.72;;
28766;SDS011;15921;52.034;20.650;2023-12-20T04:41:36;21.02;;;8.45;;
28766;SDS011;15921;52.034;20.650;2023-12-20T04:44:02;16.42;;;8.88;;
28766;SDS011;15921;52.034;20.650;2023-12-20T04:46:27;13.63;;;7.65;;
28766;SDS011;15921;52.034;20.650;2023-12-20T04:48:53;12.73;;;8.20;;
28766;SDS011;15921;52.034;20.650;2023-12-20T04:51:19;14.73;;;7.80;;
28766;SDS011;15921;52.034;20.650;2023-12-20T04:53:45;16.23;;;8.07;;
28766;SDS011;15921;52.034;20.650;2023-12-20T04:56:10;15.15;;;8.00;;
28766;SDS011;15921;52.034;20.650;2023-12-20T04:58:36;17.33;;;8.93;;
28766;SDS011;15921;52.034;20.650;2023-12-20T05:01:03;15.48;;;7.88;;
28766;SDS011;15921;52.034;20.650;2023-12-20T05:03:30;16.75;;;8.68;;
28766;SDS011;15921;52.034;20.650;2023-12-20T05:05:56;13.73;;;8.05;;
28766;SDS011;15921;52.034;20.650;2023-12-20T05:08:21;14.60;;;8.40;;
28766;SDS011;15921;52.034;20.650;2023-12-20T05:10:47;15.48;;;8.52;;
28766;SDS011;15921;52.034;20.650;2023-12-20T05:13:13;15.43;;;7.70;;
28766;SDS011;15921;52.034;20.650;2023-12-20T05:15:39;17.00;;;8.45;;
28766;SDS011;15921;52.034;20.650;2023-12-20T05:18:04;15.52;;;8.45;;
28766;SDS011;15921;52.034;20.650;2023-12-20T05:20:30;12.88;;;8.15;;
28766;SDS011;15921;52.034;20.650;2023-12-20T05:22:56;17.58;;;8.90;;
28766;SDS011;15921;52.034;20.650;2023-12-20T05:25:21;16.25;;;8.50;;
28766;SDS011;15921;52.034;20.650;2023-12-20T05:27:47;16.45;;;8.90;;
28766;SDS011;15921;52.034;20.650;2023-12-20T05:30:13;18.23;;;8.13;;
28766;SDS011;15921;52.034;20.650;2023-12-20T05:32:39;13.20;;;7.60;;
28766;SDS011;15921;52.034;20.650;2023-12-20T05:35:05;13.13;;;7.47;;
28766;SDS011;15921;52.034;20.650;2023-12-20T05:37:31;18.27;;;8.63;;
28766;SDS011;15921;52.034;20.650;2023-12-20T05:39:56;15.05;;;7.88;;
28766;SDS011;15921;52.034;20.650;2023-12-20T05:42:22;18.58;;;8.13;;
28766;SDS011;15921;52.034;20.650;2023-12-20T05:44:48;15.30;;;8.15;;
28766;SDS011;15921;52.034;20.650;2023-12-20T05:47:13;12.40;;;7.55;;
28766;SDS011;15921;52.034;20.650;2023-12-20T05:49:39;12.85;;;7.22;;
28766;SDS011;15921;52.034;20.650;2023-12-20T05:52:05;14.25;;;7.65;;
28766;SDS011;15921;52.034;20.650;2023-12-20T05:54:31;14.63;;;7.22;;
28766;SDS011;15921;52.034;20.650;2023-12-20T05:56:57;17.13;;;7.68;;
28766;SDS011;15921;52.034;20.650;2023-12-20T05:59:22;12.32;;;7.47;;
28766;SDS011;15921;52.034;20.650;2023-12-20T06:01:49;15.20;;;7.57;;
28766;SDS011;15921;52.034;20.650;2023-12-20T06:04:14;13.98;;;7.30;;
28766;SDS011;15921;52.034;20.650;2023-12-20T06:06:40;13.00;;;7.57;;
28766;SDS011;15921;52.034;20.650;2023-12-20T06:09:07;10.75;;;6.57;;
28766;SDS011;15921;52.034;20.650;2023-12-20T06:11:33;15.57;;;7.63;;
28766;SDS011;15921;52.034;20.650;2023-12-20T06:13:58;13.52;;;7.40;;
28766;SDS011;15921;52.034;20.650;2023-12-20T06:16:24;14.95;;;7.97;;
28766;SDS011;15921;52.034;20.650;2023-12-20T06:18:50;16.08;;;8.07;;
28766;SDS011;15921;52.034;20.650;2023-12-20T06:21:15;14.00;;;8.43;;
28766;SDS011;15921;52.034;20.650;2023-12-20T06:23:41;13.77;;;8.35;;
28766;SDS011;15921;52.034;20.650;2023-12-20T06:26:07;17.90;;;9.23;;
28766;SDS011;15921;52.034;20.650;2023-12-20T06:28:32;15.57;;;8.80;;
28766;SDS011;15921;52.034;20.650;2023-12-20T06:30:58;15.90;;;9.40;;
28766;SDS011;15921;52.034;20.650;2023-12-20T06:33:25;17.00;;;10.40;;
28766;SDS011;15921;52.034;20.650;2023-12-20T06:35:51;19.27;;;9.65;;
28766;SDS011;15921;52.034;20.650;2023-12-20T06:38:17;18.05;;;9.57;;
28766;SDS011;15921;52.034;20.650;2023-12-20T06:40:43;18.63;;;10.32;;
28766;SDS011;15921;52.034;20.650;2023-12-20T06:43:09;15.35;;;9.00;;
28766;SDS011;15921;52.034;20.650;2023-12-20T06:45:35;17.52;;;9.70;;
28766;SDS011;15921;52.034;20.650;2023-12-20T06:48:01;18.70;;;10.05;;
28766;SDS011;15921;52.034;20.650;2023-12-20T06:50:27;17.63;;;10.23;;
28766;SDS011;15921;52.034;20.650;2023-12-20T06:52:53;19.00;;;10.60;;
28766;SDS011;15921;52.034;20.650;2023-12-20T06:55:18;20.80;;;10.95;;
28766;SDS011;15921;52.034;20.650;2023-12-20T06:57:44;18.85;;;9.98;;
28766;SDS011;15921;52.034;20.650;2023-12-20T07:00:11;19.40;;;10.65;;
28766;SDS011;15921;52.034;20.650;2023-12-20T07:02:37;18.48;;;10.82;;
28766;SDS011;15921;52.034;20.650;2023-12-20T07:05:03;19.13;;;10.57;;
28766;SDS011;15921;52.034;20.650;2023-12-20T07:07:29;18.63;;;10.65;;
28766;SDS011;15921;52.034;20.650;2023-12-20T07:09:55;19.65;;;11.13;;
28766;SDS011;15921;52.034;20.650;2023-12-20T07:12:21;18.23;;;10.27;;
28766;SDS011;15921;52.034;20.650;2023-12-20T07:14:46;19.42;;;10.52;;
28766;SDS011;15921;52.034;20.650;2023-12-20T07:17:12;18.63;;;10.38;;
28766;SDS011;15921;52.034;20.650;2023-12-20T07:19:40;20.45;;;10.98;;
28766;SDS011;15921;52.034;20.650;2023-12-20T07:22:06;18.38;;;10.35;;
28766;SDS011;15921;52.034;20.650;2023-12-20T07:24:32;19.83;;;9.63;;
28766;SDS011;15921;52.034;20.650;2023-12-20T07:27:01;16.17;;;9.98;;
28766;SDS011;15921;52.034;20.650;2023-12-20T07:29:27;18.27;;;10.05;;
28766;SDS011;15921;52.034;20.650;2023-12-20T07:31:53;16.30;;;9.50;;
28766;SDS011;15921;52.034;20.650;2023-12-20T07:34:20;16.65;;;9.77;;
28766;SDS011;15921;52.034;20.650;2023-12-20T07:36:45;17.60;;;9.90;;
28766;SDS011;15921;52.034;20.650;2023-12-20T07:39:12;17.15;;;9.93;;
28766;SDS011;15921;52.034;20.650;2023-12-20T07:41:37;17.60;;;9.82;;
28766;SDS011;15921;52.034;20.650;2023-12-20T07:44:04;16.60;;;9.27;;
28766;SDS011;15921;52.034;20.650;2023-12-20T07:46:29;17.65;;;9.50;;
28766;SDS011;15921;52.034;20.650;2023-12-20T07:48:55;16.65;;;9.02;;
28766;SDS011;15921;52.034;20.650;2023-12-20T07:51:21;14.63;;;9.07;;
28766;SDS011;15921;52.034;20.650;2023-12-20T07:53:47;12.60;;;8.52;;
28766;SDS011;15921;52.034;20.650;2023-12-20T07:56:16;15.90;;;8.90;;
28766;SDS011;15921;52.034;20.650;2023-12-20T07:58:42;14.35;;;8.77;;
28766;SDS011;15921;52.034;20.650;2023-12-20T08:01:08;16.23;;;8.85;;
28766;SDS011;15921;52.034;20.650;2023-12-20T08:03:35;15.02;;;8.98;;
28766;SDS011;15921;52.034;20.650;2023-12-20T08:06:01;16.20;;;8.93;;
28766;SDS011;15921;52.034;20.650;2023-12-20T08:08:27;14.23;;;8.73;;
28766;SDS011;15921;52.034;20.650;2023-12-20T08:10:53;14.00;;;8.60;;
28766;SDS011;15921;52.034;20.650;2023-12-20T08:13:19;15.43;;;9.18;;
28766;SDS011;15921;52.034;20.650;2023-12-20T08:15:44;18.85;;;9.43;;
28766;SDS011;15921;52.034;20.650;2023-12-20T08:18:10;16.73;;;10.10;;
28766;SDS011;15921;52.034;20.650;2023-12-20T08:20:36;15.48;;;9.23;;
28766;SDS011;15921;52.034;20.650;2023-12-20T08:23:01;16.20;;;9.30;;
28766;SDS011;15921;52.034;20.650;2023-12-20T08:25:27;15.27;;;9.15;;
28766;SDS011;15921;52.034;20.650;2023-12-20T08:27:53;15.45;;;9.40;;
28766;SDS011;15921;52.034;20.650;2023-12-20T08:30:19;16.45;;;9.05;;
28766;SDS011;15921;52.034;20.650;2023-12-20T08:32:47;16.15;;;8.93;;
28766;SDS011;15921;52.034;20.650;2023-12-20T08:35:13;16.55;;;9.18;;
28766;SDS011;15921;52.034;20.650;2023-12-20T08:37:39;16.73;;;9.30;;
28766;SDS011;15921;52.034;20.650;2023-12-20T08:40:05;14.85;;;8.48;;
28766;SDS011;15921;52.034;20.650;2023-12-20T08:42:31;16.60;;;8.98;;
28766;SDS011;15921;52.034;20.650;2023-12-20T08:44:57;15.05;;;8.73;;
28766;SDS011;15921;52.034;20.650;2023-12-20T08:47:25;15.50;;;9.20;;
28766;SDS011;15921;52.034;20.650;2023-12-20T08:49:51;15.63;;;8.55;;
28766;SDS011;15921;52.034;20.650;2023-12-20T08:52:21;16.88;;;9.43;;
28766;SDS011;15921;52.034;20.650;2023-12-20T08:54:48;16.67;;;8.88;;
28766;SDS011;15921;52.034;20.650;2023-12-20T08:57:16;14.55;;;8.50;;
28766;SDS011;15921;52.034;20.650;2023-12-20T08:59:46;15.18;;;8.35;;
28766;SDS011;15921;52.034;20.650;2023-12-20T09:02:12;15.57;;;8.48;;
28766;SDS011;15921;52.034;20.650;2023-12-20T09:04:39;14.50;;;8.23;;
28766;SDS011;15921;52.034;20.650;2023-12-20T09:07:05;14.63;;;8.23;;
28766;SDS011;15921;52.034;20.650;2023-12-20T09:09:31;12.55;;;7.18;;
28766;SDS011;15921;52.034;20.650;2023-12-20T09:11:57;12.10;;;7.40;;
28766;SDS011;15921;52.034;20.650;2023-12-20T09:14:23;11.02;;;7.50;;
28766;SDS011;15921;52.034;20.650;2023-12-20T09:16:48;11.02;;;6.85;;
28766;SDS011;15921;52.034;20.650;2023-12-20T09:19:16;12.93;;;6.78;;
28766;SDS011;15921;52.034;20.650;2023-12-20T09:21:42;12.32;;;6.28;;
28766;SDS011;15921;52.034;20.650;2023-12-20T09:24:08;11.25;;;6.85;;
28766;SDS011;15921;52.034;20.650;2023-12-20T09:26:34;12.43;;;7.15;;
28766;SDS011;15921;52.034;20.650;2023-12-20T09:29:00;10.20;;;6.65;;
28766;SDS011;15921;52.034;20.650;2023-12-20T09:31:26;12.85;;;7.15;;
28766;SDS011;15921;52.034;20.650;2023-12-20T09:33:52;12.40;;;6.95;;
28766;SDS011;15921;52.034;20.650;2023-12-20T09:36:17;11.73;;;6.72;;
28766;SDS011;15921;52.034;20.650;2023-12-20T09:38:43;11.82;;;6.20;;
28766;SDS011;15921;52.034;20.650;2023-12-20T09:41:09;9.60;;;6.07;;
28766;SDS011;15921;52.034;20.650;2023-12-20T09:43:35;11.65;;;6.60;;
28766;SDS011;15921;52.034;20.650;2023-12-20T09:46:02;10.48;;;5.90;;
28766;SDS011;15921;52.034;20.650;2023-12-20T09:48:32;11.98;;;6.75;;
28766;SDS011;15921;52.034;20.650;2023-12-20T09:50:58;12.07;;;6.45;;
28766;SDS011;15921;52.034;20.650;2023-12-20T09:53:24;11.02;;;6.68;;
28766;SDS011;15921;52.034;20.650;2023-12-20T09:55:55;10.32;;;6.03;;
28766;SDS011;15921;52.034;20.650;2023-12-20T09:58:25;10.27;;;6.32;;
28766;SDS011;15921;52.034;20.650;2023-12-20T10:00:50;10.13;;;5.60;;
28766;SDS011;15921;52.034;20.650;2023-12-20T10:03:17;11.50;;;5.63;;
28766;SDS011;15921;52.034;20.650;2023-12-20T10:08:17;9.45;;;5.30;;
28766;SDS011;15921;52.034;20.650;2023-12-20T10:10:47;9.38;;;5.47;;
28766;SDS011;15921;52.034;20.650;2023-12-20T10:13:13;8.63;;;5.38;;
28766;SDS011;15921;52.034;20.650;2023-12-20T10:15:38;10.65;;;5.22;;
28766;SDS011;15921;52.034;20.650;2023-12-20T10:18:05;8.70;;;5.43;;
28766;SDS011;15921;52.034;20.650;2023-12-20T10:20:32;10.32;;;5.20;;
28766;SDS011;15921;52.034;20.650;2023-12-20T10:22:58;8.23;;;5.15;;
28766;SDS011;15921;52.034;20.650;2023-12-20T10:25:25;9.57;;;4.85;;
28766;SDS011;15921;52.034;20.650;2023-12-20T10:30:34;6.88;;;4.50;;
28766;SDS011;15921;52.034;20.650;2023-12-20T10:33:00;9.88;;;4.95;;
28766;SDS011;15921;52.034;20.650;2023-12-20T10:35:26;9.27;;;4.28;;
28766;SDS011;15921;52.034;20.650;2023-12-20T10:37:53;10.15;;;5.22;;
28766;SDS011;15921;52.034;20.650;2023-12-20T10:40:24;6.63;;;4.30;;
28766;SDS011;15921;52.034;20.650;2023-12-20T10:42:52;6.35;;;4.28;;
28766;SDS011;15921;52.034;20.650;2023-12-20T10:45:19;10.23;;;4.85;;
28766;SDS011;15921;52.034;20.650;2023-12-20T10:47:46;7.53;;;4.78;;
28766;SDS011;15921;52.034;20.650;2023-12-20T10:50:12;9.27;;;5.18;;
28766;SDS011;15921;52.034;20.650;2023-12-20T10:52:38;9.90;;;5.20;;
28766;SDS011;15921;52.034;20.650;2023-12-20T10:55:05;8.43;;;5.30;;
28766;SDS011;15921;52.034;20.650;2023-12-20T10:57:31;8.93;;;5.55;;
28766;SDS011;15921;52.034;20.650;2023-12-20T10:59:59;11.32;;;6.60;;
28766;SDS011;15921;52.034;20.650;2023-12-20T11:02:32;8.57;;;5.45;;
28766;SDS011;15921;52.034;20.650;2023-12-20T11:07:50;7.43;;;4.80;;
28766;SDS011;15921;52.034;20.650;2023-12-20T11:10:45;10.75;;;5.70;;
28766;SDS011;15921;52.034;20.650;2023-12-20T11:13:26;8.88;;;5.32;;
28766;SDS011;15921;52.034;20.650;2023-12-20T11:15:57;8.55;;;5.20;;
28766;SDS011;15921;52.034;20.650;2023-12-20T11:18:30;9.75;;;5.35;;
28766;SDS011;15921;52.034;20.650;2023-12-20T11:21:00;8.70;;;5.05;;
28766;SDS011;15921;52.034;20.650;2023-12-20T11:23:27;9.35;;;5.45;;
28766;SDS011;15921;52.034;20.650;2023-12-20T11:25:55;9.55;;;5.18;;
28766;SDS011;15921;52.034;20.650;2023-12-20T11:28:25;8.55;;;5.38;;
28766;SDS011;15921;52.034;20.650;2023-12-20T11:30:55;8.35;;;5.18;;
28766;SDS011;15921;52.034;20.650;2023-12-20T11:33:36;9.07;;;5.32;;
28766;SDS011;15921;52.034;20.650;2023-12-20T11:36:06;8.98;;;5.60;;
28766;SDS011;15921;52.034;20.650;2023-12-20T11:38:38;7.78;;;5.18;;
28766;SDS011;15921;52.034;20.650;2023-12-20T11:41:14;8.60;;;4.82;;
28766;SDS011;15921;52.034;20.650;2023-12-20T11:43:41;10.40;;;4.55;;
28766;SDS011;15921;52.034;20.650;2023-12-20T11:46:07;8.30;;;4.45;;
28766;SDS011;15921;52.034;20.650;2023-12-20T11:48:38;7.90;;;4.70;;
28766;SDS011;15921;52.034;20.650;2023-12-20T11:51:11;6.50;;;4.28;;
28766;SDS011;15921;52.034;20.650;2023-12-20T11:53:37;7.90;;;4.30;;
28766;SDS011;15921;52.034;20.650;2023-12-20T11:56:04;6.55;;;4.32;;
28766;SDS011;15921;52.034;20.650;2023-12-20T11:58:31;6.93;;;4.22;;
28766;SDS011;15921;52.034;20.650;2023-12-20T12:00:58;7.75;;;4.22;;
28766;SDS011;15921;52.034;20.650;2023-12-20T12:03:24;6.68;;;4.10;;
28766;SDS011;15921;52.034;20.650;2023-12-20T12:05:49;7.65;;;3.95;;
28766;SDS011;15921;52.034;20.650;2023-12-20T12:08:16;9.43;;;4.50;;
28766;SDS011;15921;52.034;20.650;2023-12-20T12:10:42;5.82;;;3.58;;
28766;SDS011;15921;52.034;20.650;2023-12-20T12:13:11;6.57;;;4.20;;
28766;SDS011;15921;52.034;20.650;2023-12-20T12:15:39;7.93;;;3.85;;
28766;SDS011;15921;52.034;20.650;2023-12-20T12:18:05;7.45;;;3.42;;
28766;SDS011;15921;52.034;20.650;2023-12-20T12:20:31;6.55;;;3.78;;
28766;SDS011;15921;52.034;20.650;2023-12-20T12:23:03;6.60;;;3.63;;
28766;SDS011;15921;52.034;20.650;2023-12-20T12:25:30;7.90;;;3.75;;
28766;SDS011;15921;52.034;20.650;2023-12-20T12:27:59;6.05;;;3.78;;
28766;SDS011;15921;52.034;20.650;2023-12-20T12:30:25;6.75;;;3.65;;
28766;SDS011;15921;52.034;20.650;2023-12-20T12:32:52;6.43;;;3.60;;
28766;SDS011;15921;52.034;20.650;2023-12-20T12:35:18;7.60;;;4.38;;
28766;SDS011;15921;52.034;20.650;2023-12-20T12:37:44;8.00;;;4.43;;
28766;SDS011;15921;52.034;20.650;2023-12-20T12:40:11;9.13;;;4.43;;
28766;SDS011;15921;52.034;20.650;2023-12-20T12:42:38;10.65;;;4.47;;
28766;SDS011;15921;52.034;20.650;2023-12-20T12:45:06;9.32;;;4.93;;
28766;SDS011;15921;52.034;20.650;2023-12-20T12:47:32;8.80;;;4.95;;
28766;SDS011;15921;52.034;20.650;2023-12-20T12:49:58;13.05;;;5.47;;
28766;SDS011;15921;52.034;20.650;2023-12-20T12:52:23;13.38;;;5.60;;
28766;SDS011;15921;52.034;20.650;2023-12-20T12:54:49;10.65;;;5.75;;
28766;SDS011;15921;52.034;20.650;2023-12-20T12:57:15;10.15;;;5.50;;
28766;SDS011;15921;52.034;20.650;2023-12-20T12:59:41;11.88;;;6.38;;
28766;SDS011;15921;52.034;20.650;2023-12-20T13:02:09;14.60;;;6.57;;
28766;SDS011;15921;52.034;20.650;2023-12-20T13:04:34;12.68;;;6.75;;
28766;SDS011;15921;52.034;20.650;2023-12-20T13:07:00;10.38;;;5.80;;
28766;SDS011;15921;52.034;20.650;2023-12-20T13:09:26;14.07;;;6.53;;
28766;SDS011;15921;52.034;20.650;2023-12-20T13:11:52;14.25;;;6.38;;
28766;SDS011;15921;52.034;20.650;2023-12-20T13:14:17;13.88;;;6.40;;
28766;SDS011;15921;52.034;20.650;2023-12-20T13:16:43;13.52;;;6.80;;
28766;SDS011;15921;52.034;20.650;2023-12-20T13:19:10;16.20;;;7.13;;
28766;SDS011;15921;52.034;20.650;2023-12-20T13:21:36;13.73;;;7.72;;
28766;SDS011;15921;52.034;20.650;2023-12-20T13:24:02;18.23;;;7.50;;
28766;SDS011;15921;52.034;20.650;2023-12-20T13:26:28;14.65;;;7.82;;
28766;SDS011;15921;52.034;20.650;2023-12-20T13:28:54;17.10;;;8.02;;
28766;SDS011;15921;52.034;20.650;2023-12-20T13:31:20;13.70;;;7.20;;
28766;SDS011;15921;52.034;20.650;2023-12-20T13:33:45;11.68;;;5.78;;
28766;SDS011;15921;52.034;20.650;2023-12-20T13:36:11;13.05;;;7.13;;
28766;SDS011;15921;52.034;20.650;2023-12-20T13:38:37;12.55;;;6.65;;
28766;SDS011;15921;52.034;20.650;2023-12-20T13:41:03;12.10;;;6.75;;
28766;SDS011;15921;52.034;20.650;2023-12-20T13:43:30;13.77;;;6.60;;
28766;SDS011;15921;52.034;20.650;2023-12-20T13:45:57;14.68;;;6.55;;
28766;SDS011;15921;52.034;20.650;2023-12-20T13:48:23;14.70;;;7.15;;
28766;SDS011;15921;52.034;20.650;2023-12-20T13:50:49;11.90;;;6.75;;
28766;SDS011;15921;52.034;20.650;2023-12-20T13:53:15;15.27;;;6.60;;
28766;SDS011;15921;52.034;20.650;2023-12-20T13:55:41;12.10;;;6.20;;
28766;SDS011;15921;52.034;20.650;2023-12-20T13:58:06;12.65;;;6.00;;
28766;SDS011;15921;52.034;20.650;2023-12-20T14:00:32;12.27;;;5.80;;
28766;SDS011;15921;52.034;20.650;2023-12-20T14:02:58;10.40;;;5.70;;
28766;SDS011;15921;52.034;20.650;2023-12-20T14:05:23;14.38;;;6.32;;
28766;SDS011;15921;52.034;20.650;2023-12-20T14:07:50;11.18;;;5.55;;
28766;SDS011;15921;52.034;20.650;2023-12-20T14:10:16;14.05;;;6.00;;
28766;SDS011;15921;52.034;20.650;2023-12-20T14:12:41;16.58;;;6.53;;
28766;SDS011;15921;52.034;20.650;2023-12-20T14:15:09;10.77;;;6.45;;
28766;SDS011;15921;52.034;20.650;2023-12-20T14:17:39;13.40;;;7.60;;
28766;SDS011;15921;52.034;20.650;2023-12-20T14:20:07;14.52;;;6.70;;
28766;SDS011;15921;52.034;20.650;2023-12-20T14:22:34;13.27;;;6.53;;